createdAt,value
2023-03-19T00:01:51.977Z,4.09
2023-03-19T00:04:19.079Z,4.09
2023-03-19T00:06:46.226Z,4.08
2023-03-19T00:09:13.061Z,4.06
2023-03-19T00:11:39.925Z,4.04
2023-03-19T00:14:06.774Z,3.97
2023-03-19T00:16:33.968Z,3.92
2023-03-19T00:19:01.307Z,3.93
2023-03-19T00:21:30.551Z,3.91
2023-03-19T00:24:02.430Z,3.89
2023-03-19T00:26:30.468Z,3.89
2023-03-19T00:28:58.174Z,3.89
2023-03-19T00:31:26.298Z,3.86
2023-03-19T00:33:53.313Z,3.83
2023-03-19T00:36:20.295Z,3.82
2023-03-19T00:38:47.540Z,3.82
2023-03-19T00:41:15.491Z,3.80
2023-03-19T00:43:42.266Z,3.76
2023-03-19T00:46:09.247Z,3.76
2023-03-19T00:48:36.054Z,3.75
2023-03-19T00:51:08.103Z,3.72
2023-03-19T00:53:42.729Z,3.72
2023-03-19T00:56:11.700Z,3.72
2023-03-19T00:58:38.939Z,3.70
2023-03-19T01:01:06.739Z,3.67
2023-03-19T01:03:34.046Z,3.68
2023-03-19T01:06:01.015Z,3.67
2023-03-19T01:08:27.891Z,3.64
2023-03-19T01:10:54.738Z,3.61
2023-03-19T01:13:21.610Z,3.64
2023-03-19T01:15:52.561Z,3.61
2023-03-19T01:18:19.599Z,3.59
2023-03-19T01:20:46.396Z,3.60
2023-03-19T01:23:13.720Z,3.61
2023-03-19T01:25:40.570Z,3.61
2023-03-19T01:28:07.751Z,3.61
2023-03-19T01:30:37.366Z,3.62
2023-03-19T01:33:25.495Z,3.61
2023-03-19T01:36:06.033Z,3.59
2023-03-19T01:38:38.899Z,3.59
2023-03-19T01:41:10.193Z,3.60
2023-03-19T01:43:37.611Z,3.62
2023-03-19T01:46:27.211Z,3.60
2023-03-19T01:49:13.872Z,3.61
2023-03-19T01:51:47.493Z,3.56
2023-03-19T01:54:32.582Z,3.51
2023-03-19T01:57:16.552Z,3.52
2023-03-19T02:00:05.602Z,3.47
2023-03-19T02:02:47.323Z,3.41
2023-03-19T02:05:26.032Z,3.39
2023-03-19T02:07:59.574Z,3.38
2023-03-19T02:10:27.272Z,3.32
2023-03-19T02:12:54.212Z,3.29
2023-03-19T02:15:21.608Z,3.33
2023-03-19T02:17:48.979Z,3.33
2023-03-19T02:20:32.952Z,3.33
2023-03-19T02:23:20.928Z,3.34
2023-03-19T02:25:55.031Z,3.32
2023-03-19T02:28:23.583Z,3.30
2023-03-19T02:30:52.360Z,3.28
2023-03-19T02:33:19.456Z,3.28
2023-03-19T02:35:49.412Z,3.27
2023-03-19T02:38:17.870Z,3.23
2023-03-19T02:41:06.247Z,3.24
2023-03-19T02:43:35.499Z,3.25
2023-03-19T02:46:06.077Z,3.18
2023-03-19T02:48:33.146Z,3.13
2023-03-19T02:50:59.957Z,3.12
2023-03-19T02:53:27.207Z,3.14
2023-03-19T02:55:53.988Z,3.12
2023-03-19T02:58:20.997Z,3.11
2023-03-19T03:00:47.915Z,3.15
2023-03-19T03:03:14.747Z,3.12
2023-03-19T03:05:41.501Z,3.05
2023-03-19T03:08:09.416Z,3.00
2023-03-19T03:10:36.626Z,2.99
2023-03-19T03:13:05.554Z,2.97
2023-03-19T03:15:32.272Z,2.94
2023-03-19T03:17:59.191Z,2.90
2023-03-19T03:20:26.004Z,2.90
2023-03-19T03:22:53.760Z,2.86
2023-03-19T03:25:21.295Z,2.79
2023-03-19T03:27:48.389Z,2.77
2023-03-19T03:30:16.238Z,2.78
2023-03-19T03:32:44.075Z,2.74
2023-03-19T03:35:11.227Z,2.68
2023-03-19T03:37:39.737Z,2.68
2023-03-19T03:40:08.532Z,2.69
2023-03-19T03:42:37.489Z,2.68
2023-03-19T03:45:05.526Z,2.69
2023-03-19T03:47:32.701Z,2.70
2023-03-19T03:49:59.966Z,2.71
2023-03-19T03:52:31.428Z,2.66
2023-03-19T03:54:58.585Z,2.61
2023-03-19T03:57:26.727Z,2.61
2023-03-19T03:59:54.460Z,2.65
2023-03-19T04:02:21.828Z,2.65
2023-03-19T04:04:49.147Z,2.65
2023-03-19T04:07:16.049Z,2.63
2023-03-19T04:09:46.633Z,2.63
2023-03-19T04:12:14.250Z,2.61
2023-03-19T04:14:41.992Z,2.58
2023-03-19T04:17:09.597Z,2.57
2023-03-19T04:19:36.596Z,2.56
2023-03-19T04:22:03.688Z,2.58
2023-03-19T04:24:31.517Z,2.55
2023-03-19T04:26:58.510Z,2.55
2023-03-19T04:29:25.733Z,2.55
2023-03-19T04:31:52.661Z,2.57
2023-03-19T04:34:19.793Z,2.55
2023-03-19T04:36:47.372Z,2.53
2023-03-19T04:39:14.633Z,2.50
2023-03-19T04:41:41.874Z,2.51
2023-03-19T04:44:29.105Z,2.48
2023-03-19T04:46:56.224Z,2.47
2023-03-19T04:49:24.543Z,2.51
2023-03-19T04:51:51.990Z,2.58
2023-03-19T04:54:19.208Z,2.68
2023-03-19T04:56:46.026Z,2.79
2023-03-19T04:59:13.022Z,2.93
2023-03-19T05:01:40.020Z,3.10
2023-03-19T05:04:09.772Z,3.27
2023-03-19T05:06:40.060Z,3.44
2023-03-19T05:09:07.743Z,3.63
2023-03-19T05:11:34.918Z,3.86
2023-03-19T05:14:12.453Z,4.05
2023-03-19T05:16:56.250Z,4.23
2023-03-19T05:19:25.209Z,4.48
2023-03-19T05:21:52.769Z,4.80
2023-03-19T05:24:24.719Z,5.18
2023-03-19T05:26:52.458Z,5.60
2023-03-19T05:29:31.211Z,6.09
2023-03-19T05:32:21.215Z,6.66
2023-03-19T05:34:48.218Z,7.25
2023-03-19T05:37:15.428Z,7.95
2023-03-19T05:39:45.372Z,8.76
2023-03-19T05:42:14.783Z,9.62
2023-03-19T05:44:42.149Z,10.41
2023-03-19T05:47:27.128Z,11.19
2023-03-19T05:49:55.323Z,11.81
2023-03-19T05:52:22.993Z,12.31
2023-03-19T05:54:50.783Z,12.75
2023-03-19T05:57:30.329Z,13.15
2023-03-19T06:00:06.715Z,13.55
2023-03-19T06:02:34.482Z,13.89
2023-03-19T06:05:16.858Z,14.11
2023-03-19T06:07:44.034Z,14.33
2023-03-19T06:10:18.192Z,14.43
2023-03-19T06:12:45.958Z,14.32
2023-03-19T06:15:28.188Z,14.28
2023-03-19T06:18:07.455Z,14.36
2023-03-19T06:20:35.392Z,14.66
2023-03-19T06:23:02.748Z,15.14
2023-03-19T06:25:30.030Z,15.72
2023-03-19T06:27:56.769Z,16.34
2023-03-19T06:30:34.358Z,17.10
2023-03-19T06:33:03.069Z,17.79
2023-03-19T06:35:31.316Z,18.37
2023-03-19T06:37:58.426Z,18.90
2023-03-19T06:40:25.238Z,19.32
2023-03-19T06:42:52.456Z,19.78
2023-03-19T06:45:20.332Z,20.23
2023-03-19T06:47:47.738Z,20.47
2023-03-19T06:50:16.540Z,20.49
2023-03-19T06:52:43.975Z,20.59
2023-03-19T06:55:12.389Z,20.98
2023-03-19T06:57:39.458Z,21.60
2023-03-19T07:00:07.443Z,22.13
2023-03-19T07:02:34.273Z,22.64
2023-03-19T07:05:01.050Z,23.12
2023-03-19T07:07:27.868Z,23.45
2023-03-19T07:09:54.585Z,23.49
2023-03-19T07:12:21.556Z,23.52
2023-03-19T07:14:48.320Z,23.86
2023-03-19T07:17:15.483Z,24.33
2023-03-19T07:19:42.327Z,24.87
2023-03-19T07:22:09.123Z,25.25
2023-03-19T07:24:36.071Z,25.63
2023-03-19T07:27:03.235Z,26.17
2023-03-19T07:29:30.172Z,26.61
2023-03-19T07:31:57.462Z,26.96
2023-03-19T07:34:24.537Z,27.36
2023-03-19T07:36:51.708Z,27.79
2023-03-19T07:39:19.079Z,28.19
2023-03-19T07:41:48.649Z,28.68
2023-03-19T07:44:16.609Z,29.01
2023-03-19T07:46:43.439Z,29.17
2023-03-19T07:49:10.446Z,28.98
2023-03-19T07:51:37.323Z,28.57
2023-03-19T07:54:04.260Z,28.09
2023-03-19T07:56:31.293Z,27.57
2023-03-19T07:58:58.496Z,27.02
2023-03-19T08:01:26.133Z,26.46
2023-03-19T08:03:52.970Z,25.95
2023-03-19T08:06:19.742Z,25.54
2023-03-19T08:08:46.866Z,25.15
2023-03-19T08:11:13.694Z,24.74
2023-03-19T08:13:40.482Z,24.38
2023-03-19T08:16:07.368Z,24.13
2023-03-19T08:18:34.831Z,23.82
2023-03-19T08:21:01.814Z,23.59
2023-03-19T08:23:28.669Z,23.27
2023-03-19T08:25:57.150Z,23.00
2023-03-19T08:28:24.089Z,22.91
2023-03-19T08:30:50.974Z,22.68
2023-03-19T08:33:18.118Z,22.52
2023-03-19T08:35:45.014Z,22.38
2023-03-19T08:38:12.081Z,22.27
2023-03-19T08:40:56.736Z,22.18
2023-03-19T08:43:23.548Z,22.11
2023-03-19T08:45:50.381Z,22.05
2023-03-19T08:48:17.325Z,21.92
2023-03-19T08:50:44.109Z,21.81
2023-03-19T08:53:11.126Z,21.75
2023-03-19T08:55:38.065Z,21.68
2023-03-19T08:58:04.952Z,21.59
2023-03-19T09:00:31.887Z,21.45
2023-03-19T09:02:58.756Z,21.33
2023-03-19T09:05:27.575Z,21.24
2023-03-19T09:07:55.496Z,21.11
2023-03-19T09:10:22.351Z,20.98
2023-03-19T09:12:49.307Z,20.84
2023-03-19T09:15:17.079Z,20.66
2023-03-19T09:17:44.462Z,20.47
2023-03-19T09:20:11.612Z,20.30
2023-03-19T09:22:38.479Z,20.26
2023-03-19T09:25:05.926Z,20.20
2023-03-19T09:27:32.755Z,20.03
2023-03-19T09:29:59.701Z,19.85
2023-03-19T09:32:26.735Z,19.82
2023-03-19T09:34:53.779Z,19.85
2023-03-19T09:37:20.592Z,19.91
2023-03-19T09:39:47.474Z,19.88
2023-03-19T09:42:37.073Z,19.73
2023-03-19T09:45:04.639Z,19.65
2023-03-19T09:47:34.211Z,19.60
2023-03-19T09:50:14.771Z,19.50
2023-03-19T09:52:47.166Z,19.51
2023-03-19T09:55:19.346Z,19.50
2023-03-19T09:57:47.737Z,19.49
2023-03-19T10:00:17.530Z,19.49
2023-03-19T10:02:44.476Z,19.41
2023-03-19T10:05:35.984Z,19.30
2023-03-19T10:08:32.866Z,19.20
2023-03-19T10:11:17.922Z,19.14
2023-03-19T10:14:02.560Z,19.09
2023-03-19T10:16:30.824Z,19.06
2023-03-19T10:19:02.841Z,19.04
2023-03-19T10:21:32.400Z,18.97
2023-03-19T10:24:06.605Z,18.84
2023-03-19T10:26:38.004Z,18.74
2023-03-19T10:29:20.878Z,18.71
2023-03-19T10:32:09.309Z,18.71
2023-03-19T10:34:58.494Z,18.72
2023-03-19T10:37:28.844Z,18.71
2023-03-19T10:39:58.320Z,18.60
2023-03-19T10:42:36.892Z,18.46
2023-03-19T10:45:26.771Z,18.37
2023-03-19T10:47:56.225Z,18.30
2023-03-19T10:50:57.649Z,18.21
2023-03-19T10:53:35.591Z,18.15
2023-03-19T10:56:24.252Z,18.09
2023-03-19T10:59:06.362Z,18.02
2023-03-19T11:01:39.940Z,17.98
2023-03-19T11:04:18.707Z,17.94
2023-03-19T11:06:50.848Z,17.89
2023-03-19T11:09:28.549Z,17.83
2023-03-19T11:12:05.655Z,17.76
2023-03-19T11:14:39.628Z,17.66
2023-03-19T11:17:18.313Z,17.60
2023-03-19T11:19:52.480Z,17.58
2023-03-19T11:22:23.198Z,17.52
2023-03-19T11:24:54.458Z,17.45
2023-03-19T11:27:34.969Z,17.38
2023-03-19T11:30:07.154Z,17.33
2023-03-19T11:32:58.504Z,17.28
2023-03-19T11:35:57.261Z,17.23
2023-03-19T11:38:52.567Z,17.14
2023-03-19T11:41:57.045Z,17.08
2023-03-19T11:44:35.531Z,17.05
2023-03-19T11:47:17.850Z,17.05
2023-03-19T11:50:18.789Z,16.98
2023-03-19T11:53:11.677Z,16.95
2023-03-19T11:55:57.415Z,16.95
2023-03-19T11:58:30.256Z,16.94
2023-03-19T12:01:01.721Z,16.86
2023-03-19T12:03:56.579Z,16.79
2023-03-19T12:07:01.131Z,16.71
2023-03-19T12:09:57.371Z,16.60
2023-03-19T12:12:37.029Z,16.53
2023-03-19T12:15:20.734Z,16.54
2023-03-19T12:18:03.050Z,16.55
2023-03-19T12:20:42.308Z,16.59
2023-03-19T12:23:37.698Z,16.61
2023-03-19T12:26:10.064Z,16.64
2023-03-19T12:28:43.837Z,16.66
2023-03-19T12:31:36.352Z,16.66
2023-03-19T12:34:34.122Z,16.67
2023-03-19T12:37:14.847Z,16.66
2023-03-19T12:39:53.173Z,16.67
2023-03-19T12:42:22.479Z,16.69
2023-03-19T12:44:57.308Z,16.70
2023-03-19T12:47:33.940Z,16.70
2023-03-19T12:50:27.469Z,16.72
2023-03-19T12:52:58.616Z,16.71
2023-03-19T12:55:43.668Z,16.72
2023-03-19T12:58:14.553Z,16.73
2023-03-19T13:01:03.613Z,16.75
2023-03-19T13:03:53.538Z,16.77
2023-03-19T13:06:23.704Z,16.80
2023-03-19T13:09:04.014Z,16.82
2023-03-19T13:11:39.813Z,16.84
2023-03-19T13:14:17.436Z,16.82
2023-03-19T13:16:57.924Z,16.79
2023-03-19T13:19:35.700Z,16.77
2023-03-19T13:22:11.845Z,16.78
2023-03-19T13:24:41.701Z,16.78
2023-03-19T13:27:16.424Z,16.80
2023-03-19T13:33:04.439Z,16.80
2023-03-19T13:35:45.746Z,16.80
2023-03-19T13:38:19.053Z,16.81
2023-03-19T13:40:51.498Z,16.81
2023-03-19T13:43:44.303Z,16.82
2023-03-19T13:46:13.891Z,16.85
2023-03-19T13:48:46.558Z,16.86
2023-03-19T13:51:17.814Z,16.88
2023-03-19T13:53:54.228Z,16.89
2023-03-19T13:56:30.002Z,16.88
2023-03-19T13:59:16.142Z,16.90
2023-03-19T14:01:44.931Z,16.93
2023-03-19T14:04:35.344Z,16.95
2023-03-19T14:07:18.203Z,16.96
2023-03-19T14:09:49.563Z,16.97
2023-03-19T14:12:26.105Z,16.98
2023-03-19T14:14:58.663Z,17.00
2023-03-19T14:17:38.512Z,17.03
2023-03-19T14:20:37.608Z,17.04
2023-03-19T14:23:06.524Z,17.06
2023-03-19T14:26:05.275Z,17.07
2023-03-19T14:28:59.348Z,17.09
2023-03-19T14:31:47.609Z,17.12
2023-03-19T14:34:34.304Z,17.11
2023-03-19T14:37:08.423Z,17.10
2023-03-19T14:39:49.060Z,17.11
2023-03-19T14:42:19.926Z,17.12
2023-03-19T14:45:18.515Z,17.13
2023-03-19T14:48:05.885Z,17.14
2023-03-19T14:50:35.709Z,17.12
2023-03-19T14:53:15.589Z,17.04
2023-03-19T14:55:43.032Z,16.96
2023-03-19T14:58:13.025Z,16.94
2023-03-19T15:00:47.217Z,16.93
2023-03-19T15:03:28.639Z,16.92
2023-03-19T15:06:01.122Z,16.95
2023-03-19T15:08:31.482Z,16.93
2023-03-19T15:11:19.309Z,16.85
2023-03-19T15:14:12.759Z,16.83
2023-03-19T15:16:54.571Z,16.82
2023-03-19T15:19:28.876Z,16.78
2023-03-19T15:22:13.508Z,16.77
2023-03-19T15:24:40.903Z,16.73
2023-03-19T15:40:11.518Z,16.79
2023-03-19T15:42:39.385Z,16.79
2023-03-19T15:45:14.982Z,16.78
2023-03-19T15:47:54.463Z,16.79
2023-03-19T15:50:25.961Z,16.79
2023-03-19T15:52:59.531Z,16.79
2023-03-19T15:55:26.540Z,16.79
2023-03-19T15:57:58.002Z,16.77
2023-03-19T16:00:25.326Z,16.75
2023-03-19T16:02:52.886Z,16.73
2023-03-19T16:05:29.812Z,16.72
2023-03-19T16:08:17.870Z,16.72
2023-03-19T16:10:45.934Z,16.70
2023-03-19T16:13:31.208Z,16.67
2023-03-19T16:16:05.293Z,16.60
2023-03-19T16:18:45.556Z,16.51
2023-03-19T16:21:18.132Z,16.37
2023-03-19T16:24:14.144Z,16.25
2023-03-19T16:26:44.495Z,16.15
2023-03-19T16:29:22.744Z,16.09
2023-03-19T16:31:52.255Z,16.02
2023-03-19T16:34:31.989Z,15.96
2023-03-19T16:36:59.779Z,15.91
2023-03-19T16:39:37.095Z,15.85
2023-03-19T16:42:09.538Z,15.79
2023-03-19T16:44:41.028Z,15.71
2023-03-19T16:47:12.741Z,15.61
2023-03-19T16:49:39.562Z,15.52
2023-03-19T16:52:12.179Z,15.47
2023-03-19T16:54:38.995Z,15.43
2023-03-19T16:57:06.214Z,15.39
2023-03-19T16:59:33.165Z,15.33
2023-03-19T17:02:00.043Z,15.24
2023-03-19T17:04:29.112Z,15.14
2023-03-19T17:06:56.100Z,15.07
2023-03-19T17:09:23.607Z,15.03
2023-03-19T17:11:50.742Z,15.00
2023-03-19T17:14:21.284Z,14.99
2023-03-19T17:16:50.854Z,14.96
2023-03-19T17:19:22.208Z,14.94
2023-03-19T17:21:53.542Z,14.91
2023-03-19T17:24:30.065Z,14.88
2023-03-19T17:26:59.451Z,14.83
2023-03-19T17:29:27.300Z,14.77
2023-03-19T17:31:56.043Z,14.69
2023-03-19T17:34:26.579Z,14.60
2023-03-19T17:37:04.233Z,14.51
2023-03-19T17:39:31.627Z,14.41
2023-03-19T17:41:59.718Z,14.32
2023-03-19T17:44:27.979Z,14.23
2023-03-19T17:46:57.145Z,14.16
2023-03-19T17:49:30.132Z,14.07
2023-03-19T17:51:57.431Z,14.00
2023-03-19T17:54:26.856Z,13.94
2023-03-19T17:56:56.750Z,13.86
2023-03-19T17:59:24.075Z,13.77
2023-03-19T18:01:52.216Z,13.69
2023-03-19T18:04:21.480Z,13.63
2023-03-19T18:06:56.655Z,13.54
2023-03-19T18:09:27.005Z,13.48
2023-03-19T18:11:54.374Z,13.39
2023-03-19T18:14:21.349Z,13.35
2023-03-19T18:16:48.590Z,13.28
2023-03-19T18:19:37.745Z,13.21
2023-03-19T18:22:16.701Z,13.14
2023-03-19T18:24:44.365Z,13.08
2023-03-19T18:27:11.218Z,13.03
2023-03-19T18:29:38.445Z,12.94
2023-03-19T18:32:13.150Z,12.85
2023-03-19T18:34:39.918Z,12.77
2023-03-19T18:37:06.845Z,12.70
2023-03-19T18:39:38.094Z,12.66
2023-03-19T18:42:04.963Z,12.65
2023-03-19T18:44:31.928Z,12.61
2023-03-19T18:46:58.828Z,12.57
2023-03-19T18:49:27.440Z,12.52
2023-03-19T18:52:02.753Z,12.48
2023-03-19T18:54:33.550Z,12.42
2023-03-19T18:57:01.788Z,12.35
2023-03-19T18:59:33.118Z,12.26
2023-03-19T19:07:29.991Z,12.05
2023-03-19T19:09:56.817Z,11.94
2023-03-19T19:12:27.188Z,11.86
2023-03-19T19:14:54.112Z,11.82
2023-03-19T19:17:24.802Z,11.79
2023-03-19T19:19:51.658Z,11.76
2023-03-19T19:22:19.630Z,11.72
2023-03-19T19:24:47.150Z,11.69
2023-03-19T19:27:22.143Z,11.67
2023-03-19T19:29:50.372Z,11.68
2023-03-19T19:32:20.889Z,11.65
2023-03-19T19:35:08.009Z,11.61
2023-03-19T19:37:35.202Z,11.62
2023-03-19T19:40:04.526Z,11.60
2023-03-19T20:02:57.480Z,11.16
2023-03-19T20:05:28.031Z,11.10
2023-03-19T20:07:58.578Z,11.02
2023-03-19T20:10:28.084Z,10.91
2023-03-19T20:12:58.685Z,10.85
2023-03-19T20:15:29.539Z,10.79
2023-03-19T20:17:58.011Z,10.73
2023-03-19T20:20:28.251Z,10.68
2023-03-19T20:22:56.852Z,10.63
2023-03-19T20:25:26.629Z,10.58
2023-03-19T20:27:59.479Z,10.52
2023-03-19T20:30:27.900Z,10.48
2023-03-19T20:32:56.299Z,10.39
2023-03-19T20:35:26.214Z,10.33
2023-03-19T20:37:54.595Z,10.25
2023-03-19T20:40:24.278Z,10.21
2023-03-19T20:42:52.617Z,10.16
2023-03-19T20:45:24.875Z,10.11
2023-03-19T20:47:55.907Z,10.03
2023-03-19T20:50:28.778Z,9.94
2023-03-19T20:53:01.277Z,9.88
2023-03-19T20:55:35.085Z,9.84
2023-03-19T20:58:04.327Z,9.80
2023-03-19T21:00:33.789Z,9.78
2023-03-19T21:03:02.400Z,9.75
2023-03-19T21:05:36.512Z,9.69
2023-03-19T21:08:12.078Z,9.62
2023-03-19T21:10:44.772Z,9.57
2023-03-19T21:13:17.916Z,9.55
2023-03-19T21:15:46.491Z,9.51
2023-03-19T21:18:13.837Z,9.50
2023-03-19T21:20:42.697Z,9.47
2023-03-19T21:23:19.066Z,9.46
2023-03-19T21:25:47.321Z,9.40
2023-03-19T21:28:29.485Z,9.38
2023-03-19T21:30:57.796Z,9.33
2023-03-19T21:33:28.160Z,9.28
2023-03-19T21:35:56.488Z,9.21
2023-03-19T21:38:23.701Z,9.14
